Time;durP1;ratioP1;P1;durP2;ratioP2;P2;SDS_P1;SDS_P2;PMS_P1;PMS_P2;Temp;Humidity;BMP_temperature;BMP_pressure;BME280_temperature;BME280_humidity;BME280_pressure;Samples;Min_cycle;Max_cycle;Signal;HPM_P1;HPM_P2
2022/09/04 00:00:10;;;;;;;1999.90;999.90;;;16.50;71.80;;;;;;5073165;28;20040;-73
2022/09/04 00:02:54;;;;;;;1999.90;999.90;;;16.50;72.50;;;;;;5054149;28;20040;-73
2022/09/04 00:05:41;;;;;;;1999.90;999.90;;;16.40;72.00;;;;;;5068493;28;20055;-73
2022/09/04 00:08:16;;;;;;;1999.90;999.90;;;16.40;72.10;;;;;;5071771;28;20051;-73
2022/09/04 00:10:53;;;;;;;1999.90;999.90;;;16.30;72.20;;;;;;5067111;28;20044;-73
2022/09/04 00:13:32;;;;;;;1999.90;999.90;;;16.30;72.40;;;;;;5069760;28;20127;-73
2022/09/04 00:16:05;;;;;;;1999.90;999.90;;;16.20;72.60;;;;;;5040699;28;20036;-73
2022/09/04 00:18:47;;;;;;;;;;;16.20;72.70;;;;;;5071263;28;20040;-73
2022/09/04 00:21:27;;;;;;;1999.90;999.90;;;16.20;72.90;;;;;;5088789;28;21082;-73
2022/09/04 00:23:58;;;;;;;1999.90;999.90;;;16.10;72.90;;;;;;5067614;28;20035;-73
2022/09/04 00:26:24;;;;;;;1999.90;999.90;;;16.10;73.00;;;;;;5070534;28;20051;-74
2022/09/04 00:28:54;;;;;;;1999.90;999.90;;;16.00;73.10;;;;;;5055951;28;20040;-73
2022/09/04 00:31:37;;;;;;;1999.90;999.90;;;16.00;73.20;;;;;;5053217;28;20060;-73
2022/09/04 00:34:12;;;;;;;1999.90;999.90;;;15.90;73.50;;;;;;5060365;28;20052;-73
2022/09/04 00:36:43;;;;;;;1999.90;999.90;;;15.90;73.50;;;;;;5067729;28;20445;-73
2022/09/04 00:39:14;;;;;;;1999.90;999.90;;;15.80;73.60;;;;;;5053154;28;20048;-73
2022/09/04 00:42:03;;;;;;;1999.90;999.90;;;15.80;73.90;;;;;;5060728;28;20544;-73
2022/09/04 00:45:03;;;;;;;1999.90;999.90;;;15.70;74.10;;;;;;5050528;28;20047;-73
2022/09/04 00:47:56;;;;;;;1999.90;999.90;;;15.70;74.40;;;;;;5033994;28;20036;-73
2022/09/04 00:50:58;;;;;;;1999.90;999.90;;;15.60;74.50;;;;;;5040359;28;20040;-73
2022/09/04 00:53:45;;;;;;;1999.90;999.90;;;15.60;74.70;;;;;;5061377;28;20422;-73
2022/09/04 00:56:16;;;;;;;1999.90;999.90;;;15.50;74.80;;;;;;5063421;28;20039;-73
2022/09/04 00:59:10;;;;;;;1999.90;999.90;;;15.50;75.20;;;;;;5073487;28;20450;-73
2022/09/04 01:01:35;;;;;;;1999.90;999.90;;;15.50;75.40;;;;;;5051389;28;20427;-73
2022/09/04 01:04:30;;;;;;;1999.90;999.90;;;15.40;75.60;;;;;;5049893;28;20039;-73
2022/09/04 01:07:07;;;;;;;1999.90;999.90;;;15.30;75.90;;;;;;5085472;28;20495;-73
2022/09/04 01:09:50;;;;;;;1999.90;999.90;;;15.30;76.40;;;;;;5071310;28;20040;-73
2022/09/04 01:12:35;;;;;;;1999.90;999.90;;;15.30;76.60;;;;;;5065886;28;20062;-73
2022/09/04 01:15:16;;;;;;;1999.90;999.90;;;15.20;76.80;;;;;;5071942;28;20044;-73
2022/09/04 01:18:03;;;;;;;1999.90;999.90;;;15.20;76.90;;;;;;5056556;28;20403;-73
2022/09/04 01:21:11;;;;;;;1999.90;999.90;;;15.20;77.30;;;;;;5056799;28;20040;-73
2022/09/04 01:24:03;;;;;;;1999.90;999.90;;;15.10;77.80;;;;;;5052479;28;20055;-73
2022/09/04 01:27:04;;;;;;;1999.90;999.90;;;15.10;77.80;;;;;;5047981;28;20051;-73
2022/09/04 01:29:57;;;;;;;1999.90;999.90;;;15.00;78.00;;;;;;5079781;28;20101;-73
2022/09/04 01:32:44;;;;;;;1999.90;999.90;;;15.00;78.40;;;;;;5065147;28;20123;-73
2022/09/04 01:35:25;;;;;;;1999.90;999.90;;;14.90;78.50;;;;;;5058893;28;20051;-73
2022/09/04 01:38:00;;;;;;;1999.90;999.90;;;14.90;78.70;;;;;;5068810;28;20045;-73
2022/09/04 01:40:33;;;;;;;1999.90;999.90;;;14.80;79.20;;;;;;5072634;28;20050;-73
2022/09/04 01:43:06;;;;;;;1999.90;999.90;;;14.80;79.40;;;;;;5083148;28;20403;-73
2022/09/04 01:45:51;;;;;;;1999.90;999.90;;;14.70;79.90;;;;;;5070993;28;20277;-73
2022/09/04 01:48:40;;;;;;;1999.90;999.90;;;14.70;80.20;;;;;;5055183;28;20040;-73
2022/09/04 01:51:35;;;;;;;1999.90;999.90;;;14.70;80.50;;;;;;5071677;28;20046;-73
2022/09/04 01:54:33;;;;;;;1999.90;999.90;;;14.70;81.10;;;;;;4990792;28;20104;-73
2022/09/04 01:57:30;;;;;;;1999.90;999.90;;;14.70;81.60;;;;;;4987133;28;20046;-73
2022/09/04 02:00:11;;;;;;;1999.90;999.90;;;14.60;81.70;;;;;;4970135;28;20062;-73
2022/09/04 02:02:54;;;;;;;1999.90;999.90;;;14.70;82.10;;;;;;4995549;28;20072;-73
2022/09/04 02:05:32;;;;;;;1999.90;999.90;;;14.60;82.60;;;;;;4990586;28;20046;-73
2022/09/04 02:08:22;;;;;;;1999.90;999.90;;;14.60;82.80;;;;;;4994076;28;20076;-73
2022/09/04 02:11:20;;;;;;;1999.90;999.90;;;14.60;83.20;;;;;;4995863;28;20042;-73
2022/09/04 02:14:08;;;;;;;1999.90;999.90;;;14.60;83.60;;;;;;4989754;28;20403;-73
2022/09/04 02:16:44;;;;;;;1999.90;999.90;;;14.60;83.90;;;;;;4971074;28;20141;-73
2022/09/04 02:19:14;;;;;;;1999.90;999.90;;;14.50;84.40;;;;;;4996834;28;20057;-73
2022/09/04 02:21:49;;;;;;;1999.90;999.90;;;14.50;84.60;;;;;;4991720;28;20076;-73
2022/09/04 02:24:25;;;;;;;1999.90;999.90;;;14.50;85.00;;;;;;4977604;28;20050;-73
2022/09/04 02:26:59;;;;;;;1999.90;999.90;;;14.50;85.30;;;;;;4973176;28;20856;-73
2022/09/04 02:29:33;;;;;;;1999.90;999.90;;;14.50;85.60;;;;;;4976575;28;20046;-73
2022/09/04 02:32:09;;;;;;;1999.90;999.90;;;14.50;85.90;;;;;;5031008;28;20036;-73
2022/09/04 02:35:05;;;;;;;1999.90;999.90;;;14.50;86.30;;;;;;5069401;28;20388;-73
2022/09/04 02:37:54;;;;;;;1999.90;999.90;;;14.50;87.60;;;;;;5047331;28;20563;-73
2022/09/04 02:40:37;;;;;;;1999.90;999.90;;;14.40;87.20;;;;;;5031748;28;20127;-73
2022/09/04 02:43:16;;;;;;;1999.90;999.90;;;14.40;87.40;;;;;;5053900;28;20053;-73
2022/09/04 02:46:04;;;;;;;1999.90;999.90;;;14.40;87.50;;;;;;5056893;28;20085;-73
2022/09/04 02:48:56;;;;;;;1999.90;999.90;;;14.30;87.90;;;;;;5080918;28;20115;-73
2022/09/04 02:51:31;;;;;;;1999.90;999.90;;;14.30;88.50;;;;;;5072046;28;20457;-73
2022/09/04 02:54:09;;;;;;;1999.90;999.90;;;14.30;89.20;;;;;;5068513;28;20036;-73
2022/09/04 02:57:05;;;;;;;1999.90;999.90;;;14.30;89.40;;;;;;5055012;28;20093;-73
2022/09/04 02:59:52;;;;;;;1999.90;999.90;;;14.30;89.90;;;;;;5054984;28;20040;-73
2022/09/04 03:02:29;;;;;;;1999.90;999.90;;;14.30;90.10;;;;;;5052126;28;20545;-73
2022/09/04 03:05:10;;;;;;;1999.90;999.90;;;14.30;90.20;;;;;;5067619;28;20046;-73
2022/09/04 03:07:46;;;;;;;1999.90;999.90;;;14.30;90.40;;;;;;5065619;28;20036;-73
2022/09/04 03:10:16;;;;;;;1999.90;999.90;;;14.30;90.50;;;;;;5054676;28;20048;-73
2022/09/04 03:13:12;;;;;;;1999.90;999.90;;;14.30;90.70;;;;;;5081952;28;20044;-73
2022/09/04 03:15:57;;;;;;;1999.90;999.90;;;14.20;90.80;;;;;;5067709;28;20071;-73
2022/09/04 03:18:29;;;;;;;1999.90;999.90;;;14.20;91.10;;;;;;5048216;28;20044;-73
2022/09/04 03:21:15;;;;;;;1999.90;999.90;;;14.20;91.10;;;;;;5070786;28;20043;-73
2022/09/04 03:24:02;;;;;;;1999.90;999.90;;;14.20;91.20;;;;;;5047391;28;20036;-73
2022/09/04 03:26:34;;;;;;;1999.90;999.90;;;14.20;91.50;;;;;;5055575;28;20082;-73
2022/09/04 03:29:09;;;;;;;;;;;14.10;91.50;;;;;;5052136;28;20047;-73
2022/09/04 03:32:00;;;;;;;1999.90;999.90;;;14.10;91.70;;;;;;5070606;28;19930;-73
2022/09/04 03:34:45;;;;;;;1999.90;999.90;;;14.00;91.80;;;;;;5051789;28;20079;-73
2022/09/04 03:37:38;;;;;;;1999.90;999.90;;;14.00;92.00;;;;;;5048258;28;20063;-73
2022/09/04 03:40:12;;;;;;;;;;;14.00;92.20;;;;;;5068688;28;20090;-73
2022/09/04 03:42:43;;;;;;;1999.90;999.90;;;13.90;92.60;;;;;;5102377;28;20444;-72
2022/09/04 03:45:36;;;;;;;1999.90;999.90;;;13.90;92.40;;;;;;5053638;28;20055;-73
2022/09/04 03:48:30;;;;;;;1999.90;999.90;;;13.80;92.60;;;;;;5069407;28;20036;-73
2022/09/04 03:51:14;;;;;;;1999.90;999.90;;;13.80;92.80;;;;;;5076829;28;20364;-73
2022/09/04 03:53:45;;;;;;;1999.90;999.90;;;13.70;93.30;;;;;;5053537;28;20086;-73
2022/09/04 03:56:18;;;;;;;1999.90;999.90;;;13.70;93.40;;;;;;5053442;28;20126;-73
2022/09/04 03:59:12;;;;;;;1999.90;999.90;;;13.70;93.70;;;;;;5088423;28;20146;-72
2022/09/04 04:01:56;;;;;;;1999.90;999.90;;;13.70;93.70;;;;;;5086956;28;20052;-73
2022/09/04 04:04:59;;;;;;;1999.90;999.90;;;13.60;94.10;;;;;;5057980;28;20678;-73
2022/09/04 04:07:36;;;;;;;1999.90;999.90;;;13.70;94.20;;;;;;5074901;28;20041;-73
2022/09/04 04:10:05;;;;;;;1999.90;999.90;;;13.70;94.60;;;;;;5048001;28;20058;-73
2022/09/04 04:13:11;;;;;;;1999.90;999.90;;;13.70;94.60;;;;;;5073636;28;20079;-73
2022/09/04 04:16:05;;;;;;;1999.90;999.90;;;13.70;94.70;;;;;;5069851;28;20052;-73
2022/09/04 04:19:09;;;;;;;1999.90;999.90;;;13.70;94.80;;;;;;5062406;28;20562;-73
2022/09/04 04:21:56;;;;;;;1999.90;999.90;;;13.70;94.90;;;;;;5069641;28;20100;-73
2022/09/04 04:24:37;;;;;;;1999.90;999.90;;;13.70;94.90;;;;;;5068942;28;20047;-73
2022/09/04 04:27:24;;;;;;;1999.90;999.90;;;13.70;95.10;;;;;;5063150;28;20081;-73
2022/09/04 04:30:05;;;;;;;1999.90;999.90;;;13.70;95.30;;;;;;5061254;28;20036;-73
2022/09/04 04:32:37;;;;;;;1999.90;999.90;;;13.70;95.30;;;;;;5063527;28;20467;-73
2022/09/04 04:35:40;;;;;;;1999.90;999.90;;;13.60;95.50;;;;;;5050015;28;20044;-73
2022/09/04 04:38:23;;;;;;;1999.90;999.90;;;13.70;95.50;;;;;;5067852;28;20131;-73
2022/09/04 04:40:58;;;;;;;;;;;13.60;95.70;;;;;;5074245;28;20573;-73
2022/09/04 04:43:55;;;;;;;1999.90;999.90;;;13.60;96.30;;;;;;5064463;28;20298;-73
2022/09/04 04:46:35;;;;;;;1999.90;999.90;;;13.60;96.10;;;;;;5077248;28;20177;-73
2022/09/04 04:49:24;;;;;;;1999.90;999.90;;;13.50;95.90;;;;;;5060074;28;20066;-73
2022/09/04 04:52:29;;;;;;;1999.90;999.90;;;13.50;96.00;;;;;;5067803;28;20039;-73
2022/09/04 04:55:21;;;;;;;1999.90;999.90;;;13.40;96.10;;;;;;5056447;28;20138;-73
2022/09/04 04:57:47;;;;;;;1999.90;999.90;;;13.50;96.30;;;;;;5073143;28;20160;-73
2022/09/04 05:00:39;;;;;;;1999.90;999.90;;;13.40;96.40;;;;;;5072281;28;20131;-73
2022/09/04 05:03:44;;;;;;;1999.90;999.90;;;13.40;96.60;;;;;;5065601;28;20047;-73
2022/09/04 05:07:01;;;;;;;1999.90;999.90;;;13.40;96.70;;;;;;5019678;28;20595;-73
2022/09/04 05:09:30;;;;;;;1999.90;999.90;;;13.40;96.80;;;;;;5024001;28;20573;-73
2022/09/04 05:12:15;;;;;;;1999.90;999.90;;;13.40;97.00;;;;;;4989458;28;20301;-73
2022/09/04 05:15:01;;;;;;;1999.90;999.90;;;13.50;97.10;;;;;;5007673;28;20073;-73
2022/09/04 05:17:36;;;;;;;1999.90;999.90;;;13.50;97.20;;;;;;4997955;28;20042;-73
2022/09/04 05:20:36;;;;;;;1999.90;999.90;;;13.50;97.30;;;;;;5007888;28;20052;-73
2022/09/04 05:23:37;;;;;;;1999.90;999.90;;;13.50;97.50;;;;;;4986585;28;20134;-73
2022/09/04 05:26:42;;;;;;;1999.90;999.90;;;13.50;97.60;;;;;;5001337;28;20413;-73
2022/09/04 05:29:46;;;;;;;1999.90;999.90;;;13.60;97.70;;;;;;4989466;28;20073;-73
2022/09/04 05:32:29;;;;;;;1999.90;999.90;;;13.60;97.70;;;;;;4959096;28;1059359;-73
2022/09/04 05:35:07;;;;;;;1999.90;999.90;;;13.70;97.80;;;;;;5012067;28;20048;-73
2022/09/04 05:38:00;;;;;;;1999.90;999.90;;;13.80;98.00;;;;;;5008633;28;20051;-73
2022/09/04 05:40:38;;;;;;;1999.90;999.90;;;13.80;98.10;;;;;;5029785;28;20098;-73
2022/09/04 05:43:27;;;;;;;1999.90;999.90;;;13.90;98.00;;;;;;5049825;28;20045;-73
2022/09/04 05:46:31;;;;;;;1999.90;999.90;;;14.00;98.00;;;;;;5070860;28;20047;-73
2022/09/04 05:49:01;;;;;;;1999.90;999.90;;;14.00;98.00;;;;;;5042934;28;20431;-73
2022/09/04 05:51:31;;;;;;;1999.90;999.90;;;14.10;98.10;;;;;;5073981;28;20114;-73
2022/09/04 05:54:02;;;;;;;1999.90;999.90;;;14.10;98.10;;;;;;5073290;28;20399;-73
2022/09/04 05:56:40;;;;;;;1999.90;999.90;;;14.10;98.20;;;;;;5069902;28;20072;-73
2022/09/04 05:59:39;;;;;;;1999.90;999.90;;;14.20;98.10;;;;;;5074127;28;20450;-73
2022/09/04 06:02:25;;;;;;;1999.90;999.90;;;14.30;98.30;;;;;;5069515;28;20048;-73
2022/09/04 06:05:18;;;;;;;1999.90;999.90;;;14.30;98.40;;;;;;5067278;28;20047;-73
2022/09/04 06:08:05;;;;;;;1999.90;999.90;;;14.40;98.40;;;;;;5078933;28;20043;-73
2022/09/04 06:10:45;;;;;;;1999.90;999.90;;;14.50;98.30;;;;;;5053179;28;20060;-73
2022/09/04 06:13:22;;;;;;;1999.90;999.90;;;14.60;98.30;;;;;;5072116;28;20040;-73
2022/09/04 06:16:07;;;;;;;1999.90;999.90;;;14.60;98.40;;;;;;5070590;28;20392;-73
2022/09/04 06:18:44;;;;;;;1999.90;999.90;;;14.70;98.30;;;;;;5057645;28;20035;-73
2022/09/04 06:21:49;;;;;;;1999.90;999.90;;;14.70;98.30;;;;;;5069152;28;20087;-73
2022/09/04 06:24:35;;;;;;;1999.90;999.90;;;14.80;98.30;;;;;;5056612;28;20514;-73
2022/09/04 06:27:15;;;;;;;1999.90;999.90;;;14.80;98.10;;;;;;5068515;28;20166;-73
2022/09/04 06:29:44;;;;;;;1999.90;999.90;;;14.80;98.20;;;;;;5048782;28;20028;-73
2022/09/04 06:32:47;;;;;;;1999.90;999.90;;;14.90;98.20;;;;;;5054112;28;20048;-73
2022/09/04 06:35:18;;;;;;;;;;;14.90;98.10;;;;;;5071201;28;20538;-73
2022/09/04 06:38:11;;;;;;;1999.90;999.90;;;14.90;98.30;;;;;;5071516;28;20392;-73
2022/09/04 06:41:17;;;;;;;1999.90;999.90;;;15.00;98.20;;;;;;5069560;28;20074;-73
2022/09/04 06:44:27;;;;;;;1999.90;999.90;;;15.10;98.20;;;;;;5071029;28;20043;-73
2022/09/04 06:47:27;;;;;;;1999.90;999.90;;;15.20;98.40;;;;;;5055959;28;20048;-73
2022/09/04 06:50:16;;;;;;;1999.90;999.90;;;15.40;98.30;;;;;;5050969;28;20049;-73
2022/09/04 06:53:20;;;;;;;1999.90;999.90;;;15.50;98.10;;;;;;5069465;28;20039;-73
2022/09/04 06:55:45;;;;;;;;;;;15.60;98.00;;;;;;5058990;28;20085;-73
2022/09/04 06:58:29;;;;;;;1999.90;999.90;;;15.70;98.00;;;;;;5048506;28;19928;-73
2022/09/04 07:01:07;;;;;;;1999.90;999.90;;;15.70;97.90;;;;;;5063216;28;20048;-73
2022/09/04 07:03:45;;;;;;;1999.90;999.90;;;15.80;97.80;;;;;;5071666;28;20568;-73
2022/09/04 07:06:31;;;;;;;1999.90;999.90;;;15.90;97.70;;;;;;5064165;28;20039;-73
2022/09/04 07:09:06;;;;;;;1999.90;999.90;;;16.10;97.60;;;;;;5064176;28;20074;-73
2022/09/04 07:11:46;;;;;;;1999.90;999.90;;;16.20;97.50;;;;;;5079508;28;20043;-73
2022/09/04 07:14:37;;;;;;;1999.90;999.90;;;16.30;97.50;;;;;;5054849;28;20051;-73
2022/09/04 07:17:17;;;;;;;1999.90;999.90;;;16.40;97.50;;;;;;5052529;28;20146;-73
2022/09/04 07:20:16;;;;;;;1999.90;999.90;;;16.50;97.30;;;;;;5048239;28;20042;-73
2022/09/04 07:23:16;;;;;;;1999.90;999.90;;;16.70;97.40;;;;;;5071370;28;20509;-73
2022/09/04 07:26:02;;;;;;;1999.90;999.90;;;16.90;97.30;;;;;;5068844;28;21400;-73
2022/09/04 07:28:33;;;;;;;1999.90;999.90;;;17.10;97.10;;;;;;5054333;28;20640;-73
2022/09/04 07:31:19;;;;;;;1999.90;999.90;;;17.20;96.90;;;;;;5056320;28;20052;-74
2022/09/04 07:33:56;;;;;;;1999.90;999.90;;;17.40;96.70;;;;;;5070387;28;20069;-73
2022/09/04 07:36:47;;;;;;;1999.90;999.90;;;17.40;96.50;;;;;;5055702;28;20055;-74
2022/09/04 07:39:33;;;;;;;1999.90;999.90;;;17.50;96.10;;;;;;5061364;28;20098;-74
2022/09/04 07:42:10;;;;;;;1999.90;999.90;;;17.60;95.90;;;;;;5068874;28;20044;-73
2022/09/04 07:44:53;;;;;;;1999.90;999.90;;;17.70;96.00;;;;;;5060462;28;20077;-74
2022/09/04 07:47:34;;;;;;;1999.90;999.90;;;17.90;96.00;;;;;;5057532;28;20123;-74
2022/09/04 07:50:23;;;;;;;1999.90;999.90;;;18.00;95.60;;;;;;5065717;28;20053;-74
2022/09/04 07:53:01;;;;;;;1999.90;999.90;;;18.00;95.10;;;;;;5070959;28;20043;-74
2022/09/04 07:55:47;;;;;;;1999.90;999.90;;;18.10;95.30;;;;;;5070766;28;20568;-74
2022/09/04 07:58:45;;;;;;;1999.90;999.90;;;18.30;95.20;;;;;;5063714;28;20123;-74
2022/09/04 08:01:31;;;;;;;1999.90;999.90;;;18.50;95.00;;;;;;5049178;28;20173;-74
2022/09/04 08:04:27;;;;;;;1999.90;999.90;;;18.60;95.00;;;;;;5055087;28;20116;-74
2022/09/04 08:07:31;;;;;;;1999.90;999.90;;;18.60;94.70;;;;;;5064457;28;20586;-74
2022/09/04 08:10:32;;;;;;;1999.90;999.90;;;18.70;94.80;;;;;;4988116;28;20128;-74
2022/09/04 08:13:25;;;;;;;1999.90;999.90;;;18.80;94.50;;;;;;5021784;28;20053;-74
2022/09/04 08:16:07;;;;;;;1999.90;999.90;;;18.90;94.60;;;;;;5010029;28;20461;-74
2022/09/04 08:18:38;;;;;;;1999.90;999.90;;;19.00;94.50;;;;;;5007750;28;20045;-74
2022/09/04 08:21:15;;;;;;;1999.90;999.90;;;19.20;94.50;;;;;;4995202;28;20086;-74
2022/09/04 08:24:01;;;;;;;1999.90;999.90;;;19.30;94.20;;;;;;5000880;28;20042;-74
2022/09/04 08:26:26;;;;;;;1999.90;999.90;;;19.40;94.40;;;;;;5007777;28;20041;-74
2022/09/04 08:29:32;;;;;;;1999.90;999.90;;;19.60;94.40;;;;;;5005842;28;20128;-74
2022/09/04 08:32:10;;;;;;;1999.90;999.90;;;19.80;93.70;;;;;;5007932;28;20079;-74
2022/09/04 08:35:01;;;;;;;1999.90;999.90;;;19.90;93.40;;;;;;5004723;28;20107;-74
2022/09/04 08:37:37;;;;;;;1999.90;999.90;;;20.10;93.40;;;;;;5009451;28;20142;-73
2022/09/04 08:40:34;;;;;;;1999.90;999.90;;;20.30;93.30;;;;;;5018095;28;20165;-74
2022/09/04 08:43:11;;;;;;;1999.90;999.90;;;20.50;93.10;;;;;;5072121;28;20488;-74
2022/09/04 08:46:23;;;;;;;1999.90;999.90;;;20.70;92.90;;;;;;5056880;28;20032;-74
2022/09/04 08:49:09;;;;;;;1999.90;999.90;;;21.00;92.50;;;;;;5069715;28;20043;-74
2022/09/04 08:51:55;;;;;;;1999.90;999.90;;;21.40;92.80;;;;;;5057406;28;20035;-74
2022/09/04 08:54:40;;;;;;;1999.90;999.90;;;21.80;92.20;;;;;;5061907;28;20093;-74
2022/09/04 08:57:05;;;;;;;1999.90;999.90;;;22.30;91.80;;;;;;5054371;28;20131;-74
2022/09/04 08:59:56;;;;;;;1999.90;999.90;;;23.10;91.00;;;;;;5076090;28;20130;-74
2022/09/04 09:03:07;;;;;;;1999.90;999.90;;;24.00;89.40;;;;;;5072836;28;20047;-74
2022/09/04 09:05:55;;;;;;;1999.90;999.90;;;24.80;88.00;;;;;;5044256;28;20783;-74
2022/09/04 09:08:39;;;;;;;1999.90;999.90;;;25.30;83.70;;;;;;5035723;28;20045;-74
2022/09/04 09:11:42;;;;;;;1999.90;999.90;;;25.40;80.20;;;;;;5042888;28;20407;-74
2022/09/04 09:14:47;;;;;;;1999.90;999.90;;;25.40;78.30;;;;;;5057991;28;20036;-74
2022/09/04 09:17:28;;;;;;;1999.90;999.90;;;25.50;76.50;;;;;;5037609;28;20121;-75
2022/09/04 09:19:59;;;;;;;1999.90;999.90;;;25.80;76.00;;;;;;5053948;28;20041;-74
2022/09/04 09:22:37;;;;;;;1999.90;999.90;;;26.00;76.60;;;;;;5057047;28;20036;-74
2022/09/04 09:25:19;;;;;;;1999.90;999.90;;;26.40;75.60;;;;;;5065008;28;20052;-74
2022/09/04 09:28:18;;;;;;;1999.90;999.90;;;26.40;73.80;;;;;;5078883;28;20047;-74
2022/09/04 09:31:04;;;;;;;1999.90;999.90;;;26.30;73.10;;;;;;5077090;28;20060;-75
2022/09/04 09:34:00;;;;;;;1999.90;999.90;;;26.50;72.70;;;;;;5074742;28;20064;-74
2022/09/04 09:36:48;;;;;;;1999.90;999.90;;;26.60;72.80;;;;;;5064421;28;20047;-74
2022/09/04 09:39:47;;;;;;;1999.90;999.90;;;26.80;71.80;;;;;;5077271;28;20399;-74
2022/09/04 09:42:37;;;;;;;1999.90;999.90;;;26.80;70.80;;;;;;5056686;28;20047;-74
2022/09/04 09:45:30;;;;;;;1999.90;999.90;;;26.80;70.30;;;;;;5053842;28;20491;-74
2022/09/04 09:48:08;;;;;;;1999.90;999.90;;;26.80;70.20;;;;;;5051189;28;20498;-74
2022/09/04 09:50:55;;;;;;;1999.90;999.90;;;26.90;70.60;;;;;;5062173;28;20084;-75
2022/09/04 09:53:39;;;;;;;1999.90;999.90;;;27.00;69.20;;;;;;5055967;28;20047;-75
2022/09/04 09:56:23;;;;;;;1999.90;999.90;;;27.10;68.80;;;;;;5054685;28;20033;-74
2022/09/04 09:58:48;;;;;;;1999.90;999.90;;;27.30;69.70;;;;;;5079287;28;20179;-74
2022/09/04 10:01:23;;;;;;;1999.90;999.90;;;27.60;69.10;;;;;;5072649;28;20539;-75
2022/09/04 10:04:13;;;;;;;1999.90;999.90;;;27.70;67.20;;;;;;5052571;28;20036;-75
2022/09/04 10:07:00;;;;;;;1999.90;999.90;;;27.60;67.40;;;;;;5068843;28;20040;-75
2022/09/04 10:10:12;;;;;;;1999.90;999.90;;;27.60;66.90;;;;;;5050716;28;20161;-75
2022/09/04 10:13:18;;;;;;;1999.90;999.90;;;27.60;66.70;;;;;;5054092;28;20123;-74
2022/09/04 10:15:53;;;;;;;1999.90;999.90;;;27.70;65.80;;;;;;5051128;28;20063;-74
2022/09/04 10:18:33;;;;;;;1999.90;999.90;;;27.60;65.60;;;;;;5069054;28;20089;-75
2022/09/04 10:21:09;;;;;;;1999.90;999.90;;;27.50;64.10;;;;;;5051370;28;20124;-75
2022/09/04 10:23:57;;;;;;;1999.90;999.90;;;27.40;65.00;;;;;;5048917;28;20760;-75
2022/09/04 10:27:00;;;;;;;1999.90;999.90;;;27.30;64.70;;;;;;5062046;28;20051;-74
2022/09/04 10:29:32;;;;;;;1999.90;999.90;;;27.20;63.80;;;;;;5070713;28;20157;-74
2022/09/04 10:32:16;;;;;;;1999.90;999.90;;;27.00;63.90;;;;;;5069715;28;20105;-75
2022/09/04 10:35:24;;;;;;;1999.90;999.90;;;27.00;64.00;;;;;;5063735;28;20816;-75
2022/09/04 10:38:07;;;;;;;1999.90;999.90;;;27.00;63.70;;;;;;5050894;28;20036;-75
2022/09/04 10:41:14;;;;;;;1999.90;999.90;;;27.10;64.10;;;;;;5049677;28;20044;-75
2022/09/04 10:44:18;;;;;;;1999.90;999.90;;;27.20;64.40;;;;;;5067473;28;20678;-74
2022/09/04 10:47:07;;;;;;;1999.90;999.90;;;27.30;63.20;;;;;;5070452;28;20039;-74
2022/09/04 10:49:41;;;;;;;1999.90;999.90;;;27.40;63.90;;;;;;5043485;28;20048;-74
2022/09/04 10:52:29;;;;;;;1999.90;999.90;;;27.40;62.40;;;;;;5062242;28;20687;-74
2022/09/04 10:55:15;;;;;;;1999.90;999.90;;;27.30;62.80;;;;;;5046805;28;20036;-75
2022/09/04 10:57:40;;;;;;;1999.90;999.90;;;27.50;63.20;;;;;;5065168;28;20047;-74
2022/09/04 11:00:13;;;;;;;1999.90;999.90;;;27.60;62.30;;;;;;5055264;28;20040;-75
2022/09/04 11:02:55;;;;;;;1999.90;999.90;;;27.60;62.50;;;;;;5065137;28;20040;-74
2022/09/04 11:05:46;;;;;;;1999.90;999.90;;;27.70;61.80;;;;;;5066358;28;20423;-75
2022/09/04 11:08:23;;;;;;;1999.90;999.90;;;27.80;62.00;;;;;;5065296;28;20059;-74
2022/09/04 11:10:58;;;;;;;1999.90;999.90;;;27.80;62.30;;;;;;5071090;28;20054;-74
2022/09/04 11:14:06;;;;;;;1999.90;999.90;;;27.90;61.20;;;;;;5047094;28;20397;-74
2022/09/04 11:16:51;;;;;;;1999.90;999.90;;;27.90;59.60;;;;;;5061976;28;20499;-75
2022/09/04 11:19:38;;;;;;;1999.90;999.90;;;28.10;60.70;;;;;;5055582;28;20189;-74
2022/09/04 11:22:33;;;;;;;1999.90;999.90;;;28.20;60.80;;;;;;5063020;28;20055;-75
2022/09/04 11:25:38;;;;;;;1999.90;999.90;;;28.10;60.70;;;;;;5068116;28;20040;-74
2022/09/04 11:28:55;;;;;;;1999.90;999.90;;;28.20;60.90;;;;;;5057408;28;20075;-74
2022/09/04 11:31:47;;;;;;;1999.90;999.90;;;28.30;61.60;;;;;;5063865;28;20587;-74
2022/09/04 11:34:25;;;;;;;1999.90;999.90;;;28.40;61.80;;;;;;5071593;28;20072;-75
2022/09/04 11:37:15;;;;;;;1999.90;999.90;;;28.60;61.60;;;;;;5049967;28;20036;-75
2022/09/04 11:39:46;;;;;;;1999.90;999.90;;;28.60;61.40;;;;;;5051971;28;20036;-74
2022/09/04 11:42:26;;;;;;;1999.90;999.90;;;28.70;61.60;;;;;;5056812;28;20105;-75
2022/09/04 11:45:30;;;;;;;1999.90;999.90;;;28.70;60.80;;;;;;5057346;28;20391;-75
2022/09/04 11:48:08;;;;;;;1999.90;999.90;;;28.60;60.80;;;;;;5051747;28;20241;-75
2022/09/04 11:50:46;;;;;;;1999.90;999.90;;;28.60;60.50;;;;;;5057404;28;20386;-74
2022/09/04 11:53:41;;;;;;;1999.90;999.90;;;28.60;60.50;;;;;;5068085;28;20081;-75
2022/09/04 11:56:25;;;;;;;1999.90;999.90;;;28.60;60.60;;;;;;4971641;28;20435;-74
2022/09/04 11:58:57;;;;;;;1999.90;999.90;;;28.60;61.20;;;;;;5059394;28;20040;-74
2022/09/04 12:01:44;;;;;;;1999.90;999.90;;;28.70;60.50;;;;;;5067264;28;20090;-74
2022/09/04 12:04:39;;;;;;;1999.90;999.90;;;28.80;59.70;;;;;;5052595;28;20063;-74
2022/09/04 12:07:24;;;;;;;1999.90;999.90;;;28.90;59.30;;;;;;5067409;28;20036;-74
2022/09/04 12:10:11;;;;;;;1999.90;999.90;;;28.90;59.00;;;;;;5067789;28;20062;-74
2022/09/04 12:12:59;;;;;;;1999.90;999.90;;;28.90;59.20;;;;;;5049154;28;20047;-74
2022/09/04 12:15:44;;;;;;;1999.90;999.90;;;28.80;59.20;;;;;;5043808;28;20044;-74
2022/09/04 12:18:40;;;;;;;1999.90;999.90;;;28.60;59.60;;;;;;5051954;28;20137;-75
2022/09/04 12:21:16;;;;;;;1999.90;999.90;;;28.50;59.90;;;;;;5065855;28;20703;-74
2022/09/04 12:24:20;;;;;;;1999.90;999.90;;;28.30;59.50;;;;;;5058670;28;20094;-74
2022/09/04 12:27:06;;;;;;;1999.90;999.90;;;28.20;59.90;;;;;;5075304;28;20054;-75
2022/09/04 12:29:53;;;;;;;1999.90;999.90;;;28.30;60.30;;;;;;5050051;28;20032;-75
2022/09/04 12:32:25;;;;;;;1999.90;999.90;;;28.50;60.90;;;;;;5067787;28;20135;-74
2022/09/04 12:35:10;;;;;;;1999.90;999.90;;;28.70;60.00;;;;;;5067261;28;20083;-74
2022/09/04 12:38:02;;;;;;;1999.90;999.90;;;28.90;60.20;;;;;;5070858;28;20044;-75
2022/09/04 12:40:33;;;;;;;1999.90;999.90;;;29.20;60.30;;;;;;5061200;28;20132;-75
2022/09/04 12:43:29;;;;;;;1999.90;999.90;;;29.20;59.10;;;;;;5074747;28;20044;-75
2022/09/04 12:46:13;;;;;;;1999.90;999.90;;;29.20;58.40;;;;;;5068305;28;20059;-75
2022/09/04 12:49:05;;;;;;;1999.90;999.90;;;29.10;58.20;;;;;;5064489;28;20036;-75
2022/09/04 12:51:50;;;;;;;1999.90;999.90;;;29.10;58.10;;;;;;5062135;28;20109;-75
2022/09/04 12:54:40;;;;;;;1999.90;999.90;;;29.20;59.00;;;;;;5080721;28;20086;-75
2022/09/04 12:57:33;;;;;;;1999.90;999.90;;;29.10;58.40;;;;;;5072126;28;20391;-75
2022/09/04 13:00:11;;;;;;;1999.90;999.90;;;29.00;57.50;;;;;;5055913;28;20047;-74
2022/09/04 13:03:05;;;;;;;1999.90;999.90;;;28.80;58.10;;;;;;5059766;28;20809;-74
2022/09/04 13:06:18;;;;;;;1999.90;999.90;;;28.80;57.60;;;;;;5066229;28;20032;-75
2022/09/04 13:09:06;;;;;;;1999.90;999.90;;;28.70;57.80;;;;;;5053097;28;20036;-75
2022/09/04 13:11:43;;;;;;;1999.90;999.90;;;28.60;58.70;;;;;;5059692;28;20050;-75
2022/09/04 13:14:27;;;;;;;1999.90;999.90;;;28.50;56.80;;;;;;5055549;28;20044;-75
2022/09/04 13:17:30;;;;;;;1999.90;999.90;;;28.30;58.30;;;;;;5054813;28;20473;-75
2022/09/04 13:20:03;;;;;;;1999.90;999.90;;;28.30;59.40;;;;;;5033647;28;20562;-74
2022/09/04 13:22:50;;;;;;;1999.90;999.90;;;28.40;59.60;;;;;;5050720;28;20059;-74
2022/09/04 13:25:51;;;;;;;1999.90;999.90;;;28.50;59.10;;;;;;5067085;28;20361;-74
2022/09/04 13:28:43;;;;;;;1999.90;999.90;;;28.50;58.10;;;;;;5056383;28;20040;-75
2022/09/04 13:31:32;;;;;;;1999.90;999.90;;;28.40;58.70;;;;;;5072821;28;20063;-74